sensor_id;sensor_type;location;lat;lon;timestamp;P1;durP1;ratioP1;P2;durP2;ratioP2
46036;SDS011;31769;49.304;8.428;2023-04-15T00:01:36;13.80;;;8.20;;
46036;SDS011;31769;49.304;8.428;2023-04-15T00:04:38;17.10;;;11.45;;
46036;SDS011;31769;49.304;8.428;2023-04-15T00:07:38;12.40;;;8.57;;
46036;SDS011;31769;49.304;8.428;2023-04-15T00:10:39;13.90;;;7.78;;
46036;SDS011;31769;49.304;8.428;2023-04-15T00:13:43;14.75;;;7.88;;
46036;SDS011;31769;49.304;8.428;2023-04-15T00:16:44;16.65;;;9.32;;
46036;SDS011;31769;49.304;8.428;2023-04-15T00:19:45;16.00;;;9.63;;
46036;SDS011;31769;49.304;8.428;2023-04-15T00:22:46;16.30;;;10.68;;
46036;SDS011;31769;49.304;8.428;2023-04-15T00:25:46;18.13;;;11.32;;
46036;SDS011;31769;49.304;8.428;2023-04-15T00:28:47;16.58;;;10.30;;
46036;SDS011;31769;49.304;8.428;2023-04-15T00:31:48;21.17;;;11.00;;
46036;SDS011;31769;49.304;8.428;2023-04-15T00:34:48;15.52;;;10.05;;
46036;SDS011;31769;49.304;8.428;2023-04-15T00:37:50;16.60;;;9.45;;
46036;SDS011;31769;49.304;8.428;2023-04-15T00:40:50;16.40;;;9.27;;
46036;SDS011;31769;49.304;8.428;2023-04-15T00:43:52;15.55;;;9.20;;
46036;SDS011;31769;49.304;8.428;2023-04-15T00:46:53;15.13;;;9.48;;
46036;SDS011;31769;49.304;8.428;2023-04-15T00:49:54;19.88;;;8.55;;
46036;SDS011;31769;49.304;8.428;2023-04-15T00:52:55;12.65;;;7.63;;
46036;SDS011;31769;49.304;8.428;2023-04-15T00:55:55;13.40;;;7.53;;
46036;SDS011;31769;49.304;8.428;2023-04-15T00:58:57;13.60;;;7.78;;
46036;SDS011;31769;49.304;8.428;2023-04-15T01:01:58;14.60;;;7.60;;
46036;SDS011;31769;49.304;8.428;2023-04-15T01:04:59;12.73;;;6.55;;
46036;SDS011;31769;49.304;8.428;2023-04-15T01:08:00;11.73;;;6.88;;
46036;SDS011;31769;49.304;8.428;2023-04-15T01:11:01;13.75;;;6.47;;
46036;SDS011;31769;49.304;8.428;2023-04-15T01:14:03;12.32;;;6.60;;
46036;SDS011;31769;49.304;8.428;2023-04-15T01:17:03;12.98;;;6.65;;
46036;SDS011;31769;49.304;8.428;2023-04-15T01:20:06;12.57;;;5.85;;
46036;SDS011;31769;49.304;8.428;2023-04-15T01:23:11;8.80;;;6.40;;
46036;SDS011;31769;49.304;8.428;2023-04-15T01:26:12;11.35;;;6.50;;
46036;SDS011;31769;49.304;8.428;2023-04-15T01:29:13;11.32;;;5.93;;
46036;SDS011;31769;49.304;8.428;2023-04-15T01:32:14;9.40;;;6.18;;
46036;SDS011;31769;49.304;8.428;2023-04-15T01:35:15;9.15;;;6.13;;
46036;SDS011;31769;49.304;8.428;2023-04-15T01:38:17;9.32;;;5.70;;
46036;SDS011;31769;49.304;8.428;2023-04-15T01:41:27;11.48;;;6.30;;
46036;SDS011;31769;49.304;8.428;2023-04-15T01:44:28;9.52;;;6.57;;
46036;SDS011;31769;49.304;8.428;2023-04-15T01:47:29;9.93;;;6.40;;
46036;SDS011;31769;49.304;8.428;2023-04-15T01:50:29;11.50;;;6.30;;
46036;SDS011;31769;49.304;8.428;2023-04-15T01:53:30;10.63;;;6.93;;
46036;SDS011;31769;49.304;8.428;2023-04-15T01:56:31;19.42;;;9.10;;
46036;SDS011;31769;49.304;8.428;2023-04-15T01:59:32;11.88;;;6.50;;
46036;SDS011;31769;49.304;8.428;2023-04-15T02:02:33;9.63;;;6.40;;
46036;SDS011;31769;49.304;8.428;2023-04-15T02:05:34;12.73;;;6.25;;
46036;SDS011;31769;49.304;8.428;2023-04-15T02:08:37;12.55;;;6.20;;
46036;SDS011;31769;49.304;8.428;2023-04-15T02:11:41;11.40;;;6.43;;
46036;SDS011;31769;49.304;8.428;2023-04-15T02:14:41;13.57;;;7.40;;
46036;SDS011;31769;49.304;8.428;2023-04-15T02:17:42;11.10;;;6.85;;
46036;SDS011;31769;49.304;8.428;2023-04-15T02:20:44;11.80;;;7.07;;
46036;SDS011;31769;49.304;8.428;2023-04-15T02:23:46;13.40;;;7.38;;
46036;SDS011;31769;49.304;8.428;2023-04-15T02:26:47;15.15;;;7.03;;
46036;SDS011;31769;49.304;8.428;2023-04-15T02:29:49;14.90;;;8.80;;
46036;SDS011;31769;49.304;8.428;2023-04-15T02:32:52;16.45;;;7.97;;
46036;SDS011;31769;49.304;8.428;2023-04-15T02:35:53;14.95;;;8.18;;
46036;SDS011;31769;49.304;8.428;2023-04-15T02:38:53;14.85;;;7.75;;
46036;SDS011;31769;49.304;8.428;2023-04-15T02:41:54;11.75;;;8.10;;
46036;SDS011;31769;49.304;8.428;2023-04-15T02:44:59;15.93;;;8.18;;
46036;SDS011;31769;49.304;8.428;2023-04-15T02:48:04;17.80;;;8.30;;
46036;SDS011;31769;49.304;8.428;2023-04-15T02:51:15;16.20;;;9.27;;
46036;SDS011;31769;49.304;8.428;2023-04-15T02:54:19;16.88;;;8.70;;
46036;SDS011;31769;49.304;8.428;2023-04-15T02:57:21;12.70;;;7.35;;
46036;SDS011;31769;49.304;8.428;2023-04-15T03:00:22;16.75;;;7.20;;
46036;SDS011;31769;49.304;8.428;2023-04-15T03:03:24;14.40;;;7.97;;
46036;SDS011;31769;49.304;8.428;2023-04-15T03:06:27;14.80;;;7.30;;
46036;SDS011;31769;49.304;8.428;2023-04-15T03:09:27;24.67;;;9.80;;
46036;SDS011;31769;49.304;8.428;2023-04-15T03:12:28;31.10;;;12.32;;
46036;SDS011;31769;49.304;8.428;2023-04-15T03:15:31;15.35;;;8.45;;
46036;SDS011;31769;49.304;8.428;2023-04-15T03:18:34;12.95;;;7.32;;
46036;SDS011;31769;49.304;8.428;2023-04-15T03:21:36;14.63;;;7.25;;
46036;SDS011;31769;49.304;8.428;2023-04-15T03:24:37;12.85;;;7.35;;
46036;SDS011;31769;49.304;8.428;2023-04-15T03:27:38;12.52;;;7.13;;
46036;SDS011;31769;49.304;8.428;2023-04-15T03:30:38;11.15;;;6.70;;
46036;SDS011;31769;49.304;8.428;2023-04-15T03:33:39;9.70;;;6.22;;
46036;SDS011;31769;49.304;8.428;2023-04-15T03:36:40;13.07;;;6.68;;
46036;SDS011;31769;49.304;8.428;2023-04-15T03:39:41;9.25;;;6.03;;
46036;SDS011;31769;49.304;8.428;2023-04-15T03:42:41;15.00;;;6.70;;
46036;SDS011;31769;49.304;8.428;2023-04-15T03:45:42;12.98;;;6.57;;
46036;SDS011;31769;49.304;8.428;2023-04-15T03:48:43;9.98;;;6.00;;
46036;SDS011;31769;49.304;8.428;2023-04-15T03:51:43;8.75;;;5.07;;
46036;SDS011;31769;49.304;8.428;2023-04-15T03:54:44;11.77;;;5.82;;
46036;SDS011;31769;49.304;8.428;2023-04-15T03:57:45;11.27;;;5.50;;
46036;SDS011;31769;49.304;8.428;2023-04-15T04:00:46;11.02;;;5.50;;
46036;SDS011;31769;49.304;8.428;2023-04-15T04:03:47;12.18;;;5.90;;
46036;SDS011;31769;49.304;8.428;2023-04-15T04:06:47;10.32;;;6.03;;
46036;SDS011;31769;49.304;8.428;2023-04-15T04:09:48;10.60;;;5.75;;
46036;SDS011;31769;49.304;8.428;2023-04-15T04:12:49;11.38;;;6.22;;
46036;SDS011;31769;49.304;8.428;2023-04-15T04:15:50;13.70;;;6.18;;
46036;SDS011;31769;49.304;8.428;2023-04-15T04:18:50;15.75;;;6.10;;
46036;SDS011;31769;49.304;8.428;2023-04-15T04:21:51;10.00;;;5.50;;
46036;SDS011;31769;49.304;8.428;2023-04-15T04:24:52;11.40;;;5.97;;
46036;SDS011;31769;49.304;8.428;2023-04-15T04:27:52;10.35;;;5.38;;
46036;SDS011;31769;49.304;8.428;2023-04-15T04:30:53;10.20;;;5.47;;
46036;SDS011;31769;49.304;8.428;2023-04-15T04:33:54;7.32;;;5.25;;
46036;SDS011;31769;49.304;8.428;2023-04-15T04:36:54;14.45;;;6.38;;
46036;SDS011;31769;49.304;8.428;2023-04-15T04:39:55;10.15;;;5.82;;
46036;SDS011;31769;49.304;8.428;2023-04-15T04:42:56;10.45;;;5.93;;
46036;SDS011;31769;49.304;8.428;2023-04-15T04:45:56;10.27;;;5.85;;
46036;SDS011;31769;49.304;8.428;2023-04-15T04:48:57;8.98;;;5.78;;
46036;SDS011;31769;49.304;8.428;2023-04-15T04:51:58;9.80;;;5.50;;
46036;SDS011;31769;49.304;8.428;2023-04-15T04:54:59;11.95;;;5.72;;
46036;SDS011;31769;49.304;8.428;2023-04-15T04:57:59;10.52;;;6.18;;
46036;SDS011;31769;49.304;8.428;2023-04-15T05:01:00;12.38;;;5.53;;
46036;SDS011;31769;49.304;8.428;2023-04-15T05:04:02;10.35;;;5.53;;
46036;SDS011;31769;49.304;8.428;2023-04-15T05:07:04;11.70;;;5.57;;
46036;SDS011;31769;49.304;8.428;2023-04-15T05:10:04;14.32;;;5.65;;
46036;SDS011;31769;49.304;8.428;2023-04-15T05:13:06;10.40;;;5.85;;
46036;SDS011;31769;49.304;8.428;2023-04-15T05:16:06;8.88;;;6.47;;
46036;SDS011;31769;49.304;8.428;2023-04-15T05:19:08;8.95;;;5.60;;
46036;SDS011;31769;49.304;8.428;2023-04-15T05:22:09;15.60;;;6.15;;
46036;SDS011;31769;49.304;8.428;2023-04-15T05:25:09;10.32;;;6.35;;
46036;SDS011;31769;49.304;8.428;2023-04-15T05:28:11;9.82;;;5.78;;
46036;SDS011;31769;49.304;8.428;2023-04-15T05:31:12;10.00;;;6.20;;
46036;SDS011;31769;49.304;8.428;2023-04-15T05:34:13;8.05;;;6.22;;
46036;SDS011;31769;49.304;8.428;2023-04-15T05:37:15;28.25;;;17.95;;
46036;SDS011;31769;49.304;8.428;2023-04-15T05:40:16;16.23;;;8.85;;
46036;SDS011;31769;49.304;8.428;2023-04-15T05:43:17;14.05;;;6.88;;
46036;SDS011;31769;49.304;8.428;2023-04-15T05:46:18;10.05;;;7.10;;
46036;SDS011;31769;49.304;8.428;2023-04-15T05:49:18;15.65;;;7.25;;
46036;SDS011;31769;49.304;8.428;2023-04-15T05:52:19;12.57;;;7.03;;
46036;SDS011;31769;49.304;8.428;2023-04-15T05:55:20;11.60;;;7.22;;
46036;SDS011;31769;49.304;8.428;2023-04-15T05:58:21;15.05;;;7.20;;
46036;SDS011;31769;49.304;8.428;2023-04-15T06:01:21;12.65;;;7.57;;
46036;SDS011;31769;49.304;8.428;2023-04-15T06:04:22;11.88;;;7.60;;
46036;SDS011;31769;49.304;8.428;2023-04-15T06:07:23;11.57;;;7.22;;
46036;SDS011;31769;49.304;8.428;2023-04-15T06:10:24;12.43;;;7.38;;
46036;SDS011;31769;49.304;8.428;2023-04-15T06:13:24;13.25;;;7.05;;
46036;SDS011;31769;49.304;8.428;2023-04-15T06:16:26;11.05;;;6.88;;
46036;SDS011;31769;49.304;8.428;2023-04-15T06:19:26;11.52;;;7.32;;
46036;SDS011;31769;49.304;8.428;2023-04-15T06:22:27;11.40;;;7.88;;
46036;SDS011;31769;49.304;8.428;2023-04-15T06:25:28;11.25;;;7.85;;
46036;SDS011;31769;49.304;8.428;2023-04-15T06:28:28;18.30;;;12.98;;
46036;SDS011;31769;49.304;8.428;2023-04-15T06:31:29;23.75;;;14.27;;
46036;SDS011;31769;49.304;8.428;2023-04-15T06:34:30;18.23;;;10.43;;
46036;SDS011;31769;49.304;8.428;2023-04-15T06:37:31;13.45;;;8.85;;
46036;SDS011;31769;49.304;8.428;2023-04-15T06:40:31;16.00;;;10.13;;
46036;SDS011;31769;49.304;8.428;2023-04-15T06:43:32;22.60;;;10.50;;
46036;SDS011;31769;49.304;8.428;2023-04-15T06:46:33;12.85;;;10.60;;
46036;SDS011;31769;49.304;8.428;2023-04-15T06:49:34;17.55;;;10.77;;
46036;SDS011;31769;49.304;8.428;2023-04-15T06:52:35;19.60;;;11.18;;
46036;SDS011;31769;49.304;8.428;2023-04-15T06:55:35;14.52;;;10.25;;
46036;SDS011;31769;49.304;8.428;2023-04-15T06:58:36;17.02;;;11.02;;
46036;SDS011;31769;49.304;8.428;2023-04-15T07:01:37;15.10;;;10.75;;
46036;SDS011;31769;49.304;8.428;2023-04-15T07:04:38;18.52;;;10.50;;
46036;SDS011;31769;49.304;8.428;2023-04-15T07:07:39;15.65;;;10.77;;
46036;SDS011;31769;49.304;8.428;2023-04-15T07:10:40;24.88;;;12.27;;
46036;SDS011;31769;49.304;8.428;2023-04-15T07:13:41;16.63;;;11.30;;
46036;SDS011;31769;49.304;8.428;2023-04-15T07:16:41;16.00;;;10.38;;
46036;SDS011;31769;49.304;8.428;2023-04-15T07:19:42;15.82;;;10.55;;
46036;SDS011;31769;49.304;8.428;2023-04-15T07:22:43;14.63;;;10.27;;
46036;SDS011;31769;49.304;8.428;2023-04-15T07:25:43;16.27;;;10.43;;
46036;SDS011;31769;49.304;8.428;2023-04-15T07:28:44;16.10;;;10.40;;
46036;SDS011;31769;49.304;8.428;2023-04-15T07:31:46;13.88;;;8.75;;
46036;SDS011;31769;49.304;8.428;2023-04-15T07:34:46;14.02;;;10.18;;
46036;SDS011;31769;49.304;8.428;2023-04-15T07:37:47;12.85;;;9.48;;
46036;SDS011;31769;49.304;8.428;2023-04-15T07:40:48;13.70;;;10.05;;
46036;SDS011;31769;49.304;8.428;2023-04-15T07:43:48;15.40;;;9.43;;
46036;SDS011;31769;49.304;8.428;2023-04-15T07:46:49;14.80;;;9.98;;
46036;SDS011;31769;49.304;8.428;2023-04-15T07:49:50;14.25;;;10.20;;
46036;SDS011;31769;49.304;8.428;2023-04-15T07:52:50;13.20;;;9.60;;
46036;SDS011;31769;49.304;8.428;2023-04-15T07:55:51;17.98;;;10.43;;
46036;SDS011;31769;49.304;8.428;2023-04-15T07:58:52;14.30;;;10.52;;
46036;SDS011;31769;49.304;8.428;2023-04-15T08:01:53;15.00;;;10.82;;
46036;SDS011;31769;49.304;8.428;2023-04-15T08:04:54;15.35;;;11.40;;
46036;SDS011;31769;49.304;8.428;2023-04-15T08:07:54;15.30;;;11.18;;
46036;SDS011;31769;49.304;8.428;2023-04-15T08:10:57;18.13;;;11.70;;
46036;SDS011;31769;49.304;8.428;2023-04-15T08:13:58;16.20;;;11.73;;
46036;SDS011;31769;49.304;8.428;2023-04-15T08:16:58;16.17;;;10.80;;
46036;SDS011;31769;49.304;8.428;2023-04-15T08:19:59;16.83;;;11.48;;
46036;SDS011;31769;49.304;8.428;2023-04-15T08:23:00;14.95;;;10.90;;
46036;SDS011;31769;49.304;8.428;2023-04-15T08:26:01;16.58;;;10.63;;
46036;SDS011;31769;49.304;8.428;2023-04-15T08:29:01;15.73;;;10.98;;
46036;SDS011;31769;49.304;8.428;2023-04-15T08:32:02;20.15;;;10.82;;
46036;SDS011;31769;49.304;8.428;2023-04-15T08:35:03;14.38;;;10.73;;
46036;SDS011;31769;49.304;8.428;2023-04-15T08:38:04;15.55;;;10.95;;
46036;SDS011;31769;49.304;8.428;2023-04-15T08:41:17;15.52;;;10.20;;
46036;SDS011;31769;49.304;8.428;2023-04-15T08:44:23;13.32;;;9.45;;
46036;SDS011;31769;49.304;8.428;2023-04-15T08:47:25;13.93;;;8.98;;
46036;SDS011;31769;49.304;8.428;2023-04-15T08:50:31;13.07;;;9.30;;
46036;SDS011;31769;49.304;8.428;2023-04-15T08:53:32;12.38;;;8.07;;
46036;SDS011;31769;49.304;8.428;2023-04-15T08:56:33;12.07;;;8.30;;
46036;SDS011;31769;49.304;8.428;2023-04-15T08:59:34;11.55;;;7.45;;
46036;SDS011;31769;49.304;8.428;2023-04-15T09:02:35;12.25;;;7.53;;
46036;SDS011;31769;49.304;8.428;2023-04-15T09:05:36;16.25;;;8.05;;
46036;SDS011;31769;49.304;8.428;2023-04-15T09:08:37;14.65;;;10.63;;
46036;SDS011;31769;49.304;8.428;2023-04-15T09:11:38;17.02;;;10.05;;
46036;SDS011;31769;49.304;8.428;2023-04-15T09:14:39;71.43;;;46.22;;
46036;SDS011;31769;49.304;8.428;2023-04-15T09:17:43;15.13;;;10.35;;
46036;SDS011;31769;49.304;8.428;2023-04-15T09:20:44;13.98;;;9.88;;
46036;SDS011;31769;49.304;8.428;2023-04-15T09:23:56;14.75;;;9.77;;
46036;SDS011;31769;49.304;8.428;2023-04-15T09:27:00;11.13;;;8.98;;
46036;SDS011;31769;49.304;8.428;2023-04-15T09:30:01;13.48;;;9.45;;
46036;SDS011;31769;49.304;8.428;2023-04-15T09:33:07;10.73;;;8.65;;
46036;SDS011;31769;49.304;8.428;2023-04-15T09:36:09;9.27;;;7.90;;
46036;SDS011;31769;49.304;8.428;2023-04-15T09:39:10;11.98;;;7.63;;
46036;SDS011;31769;49.304;8.428;2023-04-15T09:42:11;7.05;;;6.32;;
46036;SDS011;31769;49.304;8.428;2023-04-15T09:45:12;9.55;;;6.38;;
46036;SDS011;31769;49.304;8.428;2023-04-15T09:48:16;8.43;;;6.85;;
46036;SDS011;31769;49.304;8.428;2023-04-15T09:51:33;8.88;;;6.30;;
46036;SDS011;31769;49.304;8.428;2023-04-15T09:54:35;7.40;;;5.88;;
46036;SDS011;31769;49.304;8.428;2023-04-15T09:57:37;7.47;;;5.63;;
46036;SDS011;31769;49.304;8.428;2023-04-15T10:00:38;10.15;;;6.47;;
46036;SDS011;31769;49.304;8.428;2023-04-15T10:03:39;9.43;;;6.03;;
46036;SDS011;31769;49.304;8.428;2023-04-15T10:06:41;8.32;;;6.07;;
46036;SDS011;31769;49.304;8.428;2023-04-15T10:09:42;8.88;;;5.70;;
46036;SDS011;31769;49.304;8.428;2023-04-15T10:12:45;10.32;;;6.15;;
46036;SDS011;31769;49.304;8.428;2023-04-15T10:15:59;8.75;;;6.20;;
46036;SDS011;31769;49.304;8.428;2023-04-15T10:19:05;7.28;;;6.47;;
46036;SDS011;31769;49.304;8.428;2023-04-15T10:22:08;9.88;;;6.72;;
46036;SDS011;31769;49.304;8.428;2023-04-15T10:25:09;9.15;;;6.30;;
46036;SDS011;31769;49.304;8.428;2023-04-15T10:28:11;8.18;;;5.90;;
46036;SDS011;31769;49.304;8.428;2023-04-15T10:31:12;7.50;;;5.97;;
46036;SDS011;31769;49.304;8.428;2023-04-15T10:34:14;7.85;;;5.38;;
46036;SDS011;31769;49.304;8.428;2023-04-15T10:37:20;6.90;;;5.28;;
46036;SDS011;31769;49.304;8.428;2023-04-15T10:40:25;7.95;;;4.68;;
46036;SDS011;31769;49.304;8.428;2023-04-15T10:43:28;6.57;;;4.82;;
46036;SDS011;31769;49.304;8.428;2023-04-15T10:46:42;7.22;;;6.20;;
46036;SDS011;31769;49.304;8.428;2023-04-15T10:49:51;7.60;;;5.20;;
46036;SDS011;31769;49.304;8.428;2023-04-15T10:52:57;7.53;;;5.28;;
46036;SDS011;31769;49.304;8.428;2023-04-15T10:55:58;8.18;;;5.05;;
46036;SDS011;31769;49.304;8.428;2023-04-15T10:58:59;7.30;;;4.60;;
46036;SDS011;31769;49.304;8.428;2023-04-15T11:02:01;6.63;;;4.72;;
46036;SDS011;31769;49.304;8.428;2023-04-15T11:05:02;6.80;;;5.60;;
46036;SDS011;31769;49.304;8.428;2023-04-15T11:08:03;9.80;;;5.75;;
46036;SDS011;31769;49.304;8.428;2023-04-15T11:11:04;7.97;;;5.35;;
46036;SDS011;31769;49.304;8.428;2023-04-15T11:14:05;6.05;;;5.40;;
46036;SDS011;31769;49.304;8.428;2023-04-15T11:17:13;5.57;;;5.05;;
46036;SDS011;31769;49.304;8.428;2023-04-15T11:20:26;9.13;;;6.22;;
46036;SDS011;31769;49.304;8.428;2023-04-15T11:26:33;5.85;;;4.93;;
46036;SDS011;31769;49.304;8.428;2023-04-15T11:29:33;6.20;;;4.43;;
46036;SDS011;31769;49.304;8.428;2023-04-15T11:32:34;3.28;;;2.97;;
46036;SDS011;31769;49.304;8.428;2023-04-15T11:35:35;6.13;;;3.90;;
46036;SDS011;31769;49.304;8.428;2023-04-15T11:38:36;7.80;;;4.22;;
46036;SDS011;31769;49.304;8.428;2023-04-15T11:41:41;4.03;;;3.70;;
46036;SDS011;31769;49.304;8.428;2023-04-15T11:44:42;7.32;;;4.07;;
46036;SDS011;31769;49.304;8.428;2023-04-15T11:47:43;7.60;;;5.05;;
46036;SDS011;31769;49.304;8.428;2023-04-15T11:50:44;9.40;;;4.60;;
46036;SDS011;31769;49.304;8.428;2023-04-15T11:53:45;4.80;;;4.40;;
46036;SDS011;31769;49.304;8.428;2023-04-15T11:56:50;7.35;;;4.10;;
46036;SDS011;31769;49.304;8.428;2023-04-15T11:59:53;6.78;;;3.20;;
46036;SDS011;31769;49.304;8.428;2023-04-15T12:03:10;6.78;;;3.30;;
46036;SDS011;31769;49.304;8.428;2023-04-15T12:06:20;5.82;;;4.00;;
46036;SDS011;31769;49.304;8.428;2023-04-15T12:09:26;5.50;;;3.22;;
46036;SDS011;31769;49.304;8.428;2023-04-15T12:12:28;4.75;;;3.60;;
46036;SDS011;31769;49.304;8.428;2023-04-15T12:15:29;4.72;;;3.40;;
46036;SDS011;31769;49.304;8.428;2023-04-15T12:18:30;3.67;;;3.35;;
46036;SDS011;31769;49.304;8.428;2023-04-15T12:21:35;4.60;;;3.75;;
46036;SDS011;31769;49.304;8.428;2023-04-15T12:27:38;7.95;;;3.65;;
46036;SDS011;31769;49.304;8.428;2023-04-15T12:30:47;4.88;;;3.25;;
46036;SDS011;31769;49.304;8.428;2023-04-15T12:33:56;6.13;;;3.47;;
46036;SDS011;31769;49.304;8.428;2023-04-15T12:36:58;3.78;;;2.97;;
46036;SDS011;31769;49.304;8.428;2023-04-15T12:40:00;5.30;;;3.40;;
46036;SDS011;31769;49.304;8.428;2023-04-15T12:43:01;7.40;;;3.58;;
46036;SDS011;31769;49.304;8.428;2023-04-15T12:46:02;5.95;;;3.42;;
46036;SDS011;31769;49.304;8.428;2023-04-15T12:49:03;6.68;;;4.28;;
46036;SDS011;31769;49.304;8.428;2023-04-15T12:52:04;5.13;;;3.10;;
46036;SDS011;31769;49.304;8.428;2023-04-15T12:55:05;3.67;;;2.60;;
46036;SDS011;31769;49.304;8.428;2023-04-15T12:58:06;4.43;;;3.13;;
46036;SDS011;31769;49.304;8.428;2023-04-15T13:01:07;5.18;;;2.80;;
46036;SDS011;31769;49.304;8.428;2023-04-15T13:04:09;6.93;;;2.42;;
46036;SDS011;31769;49.304;8.428;2023-04-15T13:07:10;4.50;;;1.90;;
46036;SDS011;31769;49.304;8.428;2023-04-15T13:10:13;3.80;;;2.40;;
46036;SDS011;31769;49.304;8.428;2023-04-15T13:13:13;4.65;;;2.30;;
46036;SDS011;31769;49.304;8.428;2023-04-15T13:16:14;4.88;;;2.70;;
46036;SDS011;31769;49.304;8.428;2023-04-15T13:19:15;7.38;;;2.70;;
46036;SDS011;31769;49.304;8.428;2023-04-15T13:22:16;4.10;;;2.60;;
46036;SDS011;31769;49.304;8.428;2023-04-15T13:25:18;2.63;;;2.33;;
46036;SDS011;31769;49.304;8.428;2023-04-15T13:28:19;2.70;;;2.03;;
46036;SDS011;31769;49.304;8.428;2023-04-15T13:31:20;4.70;;;2.08;;
46036;SDS011;31769;49.304;8.428;2023-04-15T13:34:21;2.42;;;1.38;;
46036;SDS011;31769;49.304;8.428;2023-04-15T13:37:25;3.45;;;1.50;;
46036;SDS011;31769;49.304;8.428;2023-04-15T13:40:27;1.80;;;1.00;;
46036;SDS011;31769;49.304;8.428;2023-04-15T13:43:28;3.25;;;1.33;;
46036;SDS011;31769;49.304;8.428;2023-04-15T13:46:28;1.75;;;1.05;;
46036;SDS011;31769;49.304;8.428;2023-04-15T13:49:29;2.40;;;0.95;;
46036;SDS011;31769;49.304;8.428;2023-04-15T13:52:30;3.58;;;1.00;;
46036;SDS011;31769;49.304;8.428;2023-04-15T13:55:31;1.95;;;1.02;;
46036;SDS011;31769;49.304;8.428;2023-04-15T13:58:34;3.03;;;0.93;;
46036;SDS011;31769;49.304;8.428;2023-04-15T14:01:36;1.40;;;0.70;;
46036;SDS011;31769;49.304;8.428;2023-04-15T14:04:37;1.48;;;0.60;;
46036;SDS011;31769;49.304;8.428;2023-04-15T14:07:38;2.20;;;0.70;;
46036;SDS011;31769;49.304;8.428;2023-04-15T14:10:39;0.90;;;0.52;;
46036;SDS011;31769;49.304;8.428;2023-04-15T14:13:40;1.58;;;0.50;;
46036;SDS011;31769;49.304;8.428;2023-04-15T14:16:41;1.10;;;0.35;;
46036;SDS011;31769;49.304;8.428;2023-04-15T14:19:42;2.30;;;0.60;;
46036;SDS011;31769;49.304;8.428;2023-04-15T14:22:43;1.77;;;0.50;;
46036;SDS011;31769;49.304;8.428;2023-04-15T14:25:44;1.05;;;0.38;;
46036;SDS011;31769;49.304;8.428;2023-04-15T14:28:45;1.08;;;0.45;;
46036;SDS011;31769;49.304;8.428;2023-04-15T14:31:47;1.23;;;0.50;;
46036;SDS011;31769;49.304;8.428;2023-04-15T14:34:49;1.20;;;0.30;;
46036;SDS011;31769;49.304;8.428;2023-04-15T14:37:50;2.03;;;0.70;;
46036;SDS011;31769;49.304;8.428;2023-04-15T14:40:50;2.08;;;0.52;;
46036;SDS011;31769;49.304;8.428;2023-04-15T14:43:51;1.33;;;0.40;;
46036;SDS011;31769;49.304;8.428;2023-04-15T14:46:52;0.25;;;0.25;;
46036;SDS011;31769;49.304;8.428;2023-04-15T14:49:54;1.95;;;0.40;;
46036;SDS011;31769;49.304;8.428;2023-04-15T14:52:54;0.85;;;0.60;;
46036;SDS011;31769;49.304;8.428;2023-04-15T14:55:55;2.45;;;0.70;;
46036;SDS011;31769;49.304;8.428;2023-04-15T14:58:56;1.10;;;0.82;;
46036;SDS011;31769;49.304;8.428;2023-04-15T15:01:57;2.15;;;1.20;;
46036;SDS011;31769;49.304;8.428;2023-04-15T15:05:00;1.65;;;1.30;;
46036;SDS011;31769;49.304;8.428;2023-04-15T15:08:01;1.48;;;1.35;;
46036;SDS011;31769;49.304;8.428;2023-04-15T15:11:02;1.83;;;1.55;;
46036;SDS011;31769;49.304;8.428;2023-04-15T15:14:02;2.25;;;1.50;;
46036;SDS011;31769;49.304;8.428;2023-04-15T15:17:03;2.35;;;1.58;;
46036;SDS011;31769;49.304;8.428;2023-04-15T15:20:04;3.00;;;1.58;;
46036;SDS011;31769;49.304;8.428;2023-04-15T15:23:05;1.80;;;1.55;;
46036;SDS011;31769;49.304;8.428;2023-04-15T15:26:06;1.70;;;1.60;;
46036;SDS011;31769;49.304;8.428;2023-04-15T15:29:07;1.92;;;1.80;;
46036;SDS011;31769;49.304;8.428;2023-04-15T15:32:08;2.00;;;1.80;;
46036;SDS011;31769;49.304;8.428;2023-04-15T15:35:09;2.65;;;2.05;;
46036;SDS011;31769;49.304;8.428;2023-04-15T15:38:10;2.05;;;1.92;;
46036;SDS011;31769;49.304;8.428;2023-04-15T15:41:12;2.25;;;2.05;;
46036;SDS011;31769;49.304;8.428;2023-04-15T15:44:14;2.25;;;2.13;;
46036;SDS011;31769;49.304;8.428;2023-04-15T15:47:15;2.63;;;2.20;;
46036;SDS011;31769;49.304;8.428;2023-04-15T15:50:16;2.40;;;2.20;;
46036;SDS011;31769;49.304;8.428;2023-04-15T15:53:16;2.50;;;2.13;;
46036;SDS011;31769;49.304;8.428;2023-04-15T15:56:19;2.30;;;2.20;;
46036;SDS011;31769;49.304;8.428;2023-04-15T15:59:20;2.25;;;2.08;;
46036;SDS011;31769;49.304;8.428;2023-04-15T16:02:21;2.22;;;1.85;;
46036;SDS011;31769;49.304;8.428;2023-04-15T16:05:22;3.50;;;2.08;;
46036;SDS011;31769;49.304;8.428;2023-04-15T16:08:22;2.00;;;1.77;;
46036;SDS011;31769;49.304;8.428;2023-04-15T16:11:23;1.67;;;1.58;;
46036;SDS011;31769;49.304;8.428;2023-04-15T16:14:24;5.25;;;2.25;;
46036;SDS011;31769;49.304;8.428;2023-04-15T16:17:25;2.28;;;1.70;;
46036;SDS011;31769;49.304;8.428;2023-04-15T16:20:26;2.75;;;1.60;;
46036;SDS011;31769;49.304;8.428;2023-04-15T16:23:30;2.17;;;2.08;;
46036;SDS011;31769;49.304;8.428;2023-04-15T16:26:31;4.50;;;2.25;;
46036;SDS011;31769;49.304;8.428;2023-04-15T16:29:31;2.50;;;2.30;;
46036;SDS011;31769;49.304;8.428;2023-04-15T16:32:33;2.70;;;2.60;;
46036;SDS011;31769;49.304;8.428;2023-04-15T16:35:35;2.63;;;2.30;;
46036;SDS011;31769;49.304;8.428;2023-04-15T16:38:35;2.92;;;2.72;;
46036;SDS011;31769;49.304;8.428;2023-04-15T16:41:36;4.07;;;2.95;;
46036;SDS011;31769;49.304;8.428;2023-04-15T16:44:37;4.60;;;4.20;;
46036;SDS011;31769;49.304;8.428;2023-04-15T16:47:38;3.53;;;2.55;;
46036;SDS011;31769;49.304;8.428;2023-04-15T16:50:39;3.20;;;2.40;;
46036;SDS011;31769;49.304;8.428;2023-04-15T16:53:40;2.88;;;2.67;;
46036;SDS011;31769;49.304;8.428;2023-04-15T16:56:40;2.40;;;2.30;;
46036;SDS011;31769;49.304;8.428;2023-04-15T16:59:41;3.28;;;2.97;;
46036;SDS011;31769;49.304;8.428;2023-04-15T17:02:42;3.50;;;3.20;;
46036;SDS011;31769;49.304;8.428;2023-04-15T17:05:42;3.22;;;3.00;;
46036;SDS011;31769;49.304;8.428;2023-04-15T17:08:43;3.65;;;3.35;;
46036;SDS011;31769;49.304;8.428;2023-04-15T17:11:44;4.15;;;3.75;;
46036;SDS011;31769;49.304;8.428;2023-04-15T17:14:45;3.30;;;3.08;;
46036;SDS011;31769;49.304;8.428;2023-04-15T17:17:46;3.92;;;3.50;;
46036;SDS011;31769;49.304;8.428;2023-04-15T17:20:46;3.38;;;3.10;;
46036;SDS011;31769;49.304;8.428;2023-04-15T17:23:47;3.38;;;3.08;;
46036;SDS011;31769;49.304;8.428;2023-04-15T17:26:49;5.28;;;4.78;;
46036;SDS011;31769;49.304;8.428;2023-04-15T17:29:50;3.75;;;3.45;;
46036;SDS011;31769;49.304;8.428;2023-04-15T17:32:51;3.40;;;3.20;;
46036;SDS011;31769;49.304;8.428;2023-04-15T17:35:52;4.40;;;4.00;;
46036;SDS011;31769;49.304;8.428;2023-04-15T17:38:54;4.03;;;3.63;;
46036;SDS011;31769;49.304;8.428;2023-04-15T17:41:55;4.32;;;4.03;;
46036;SDS011;31769;49.304;8.428;2023-04-15T17:44:56;4.50;;;4.20;;
46036;SDS011;31769;49.304;8.428;2023-04-15T17:47:57;4.50;;;4.20;;
46036;SDS011;31769;49.304;8.428;2023-04-15T17:51:01;5.10;;;4.70;;
46036;SDS011;31769;49.304;8.428;2023-04-15T17:54:02;4.93;;;4.63;;
46036;SDS011;31769;49.304;8.428;2023-04-15T17:57:03;5.30;;;4.90;;
46036;SDS011;31769;49.304;8.428;2023-04-15T18:00:04;5.28;;;4.78;;
46036;SDS011;31769;49.304;8.428;2023-04-15T18:03:12;4.65;;;4.35;;
46036;SDS011;31769;49.304;8.428;2023-04-15T18:06:13;5.10;;;4.70;;
46036;SDS011;31769;49.304;8.428;2023-04-15T18:09:15;5.43;;;5.03;;